Time;durP1;ratioP1;P1;durP2;ratioP2;P2;SDS_P1;SDS_P2;PMS_P1;PMS_P2;Temp;Humidity;BMP_temperature;BMP_pressure;BME280_temperature;BME280_humidity;BME280_pressure;Samples;Min_cycle;Max_cycle;Signal;HPM_P1;HPM_P2
2022/03/11 00:00:34;;;;;;;20.45;11.25;;;4.00;72.90;;;;;;4993433;28;20053;-83
2022/03/11 00:02:59;;;;;;;19.52;11.82;;;3.90;73.00;;;;;;4971850;28;20050;-83
2022/03/11 00:05:25;;;;;;;18.33;10.57;;;3.90;73.20;;;;;;4973675;28;20256;-83
2022/03/11 00:07:51;;;;;;;17.80;9.60;;;3.80;73.30;;;;;;5008061;28;20484;-84
2022/03/11 00:10:17;;;;;;;16.17;9.50;;;3.80;73.50;;;;;;4976017;28;20046;-82
2022/03/11 00:12:43;;;;;;;15.57;9.23;;;3.80;73.60;;;;;;4977325;28;20392;-83
2022/03/11 00:15:09;;;;;;;16.02;10.15;;;3.70;73.90;;;;;;4976871;28;20042;-84
2022/03/11 00:17:35;;;;;;;17.80;9.40;;;3.70;73.90;;;;;;4975992;28;20054;-84
2022/03/11 00:20:02;;;;;;;18.30;10.10;;;3.60;74.40;;;;;;4991893;28;20065;-82
2022/03/11 00:22:28;;;;;;;15.73;9.90;;;3.60;74.60;;;;;;4992479;28;20046;-84
2022/03/11 00:24:54;;;;;;;16.50;10.25;;;3.70;74.70;;;;;;4977121;28;20047;-83
2022/03/11 00:27:19;;;;;;;17.42;9.38;;;3.60;74.80;;;;;;4992897;28;20038;-83
2022/03/11 00:29:45;;;;;;;15.93;9.32;;;3.70;74.80;;;;;;4975163;28;20061;-82
2022/03/11 00:32:11;;;;;;;13.98;9.43;;;3.60;74.70;;;;;;4974190;28;20054;-82
2022/03/11 00:34:36;;;;;;;16.50;9.55;;;3.60;74.90;;;;;;4991179;28;20045;-84
2022/03/11 00:37:02;;;;;;;17.65;9.40;;;3.50;75.10;;;;;;4976366;28;20050;-83
2022/03/11 00:39:28;;;;;;;16.15;9.18;;;3.50;75.30;;;;;;4990906;28;20096;-82
2022/03/11 00:41:55;;;;;;;17.40;9.65;;;3.50;76.20;;;;;;4976597;28;20049;-84
2022/03/11 00:44:21;;;;;;;15.43;9.00;;;3.50;75.50;;;;;;4975773;28;20129;-82
2022/03/11 00:46:46;;;;;;;14.23;8.93;;;3.40;75.60;;;;;;4976899;28;20142;-81
2022/03/11 00:49:12;;;;;;;16.73;9.85;;;3.30;75.80;;;;;;4975944;28;20061;-84
2022/03/11 00:51:38;;;;;;;16.08;9.30;;;3.40;76.10;;;;;;4976288;28;20471;-83
2022/03/11 00:54:04;;;;;;;16.25;8.95;;;3.30;76.40;;;;;;4976341;28;20046;-83
2022/03/11 00:56:31;;;;;;;14.38;8.60;;;3.30;76.80;;;;;;4975858;28;20042;-85
2022/03/11 00:58:57;;;;;;;14.50;8.73;;;3.30;76.80;;;;;;4976038;28;20125;-84
2022/03/11 01:01:23;;;;;;;15.82;9.57;;;3.30;77.20;;;;;;4975823;28;20046;-83
2022/03/11 01:03:49;;;;;;;15.20;8.63;;;3.40;77.10;;;;;;4992520;28;20050;-84
2022/03/11 01:06:15;;;;;;;18.88;8.88;;;3.40;77.30;;;;;;4975664;28;20077;-84
2022/03/11 01:08:40;;;;;;;15.90;8.38;;;3.40;77.30;;;;;;4990365;28;20057;-83
2022/03/11 01:11:08;;;;;;;17.48;8.43;;;3.40;77.50;;;;;;4990645;28;20089;-81
2022/03/11 01:13:34;;;;;;;16.98;9.45;;;3.40;77.30;;;;;;4973748;28;20069;-81
2022/03/11 01:16:00;;;;;;;17.15;9.25;;;3.30;78.10;;;;;;4975567;28;20049;-82
2022/03/11 01:18:26;;;;;;;15.10;8.77;;;3.40;78.30;;;;;;4959507;28;20533;-82
2022/03/11 01:20:52;;;;;;;19.27;9.13;;;3.40;78.40;;;;;;4975723;28;20038;-82
2022/03/11 01:23:18;;;;;;;15.43;8.27;;;3.30;78.90;;;;;;4975542;28;20042;-82
2022/03/11 01:25:44;;;;;;;14.63;8.30;;;3.40;79.20;;;;;;4976138;28;20201;-82
2022/03/11 01:28:10;;;;;;;13.95;8.52;;;3.40;78.90;;;;;;4975456;28;20185;-86
2022/03/11 01:30:36;;;;;;;17.38;8.73;;;3.40;79.70;;;;;;4988694;28;20038;-82
2022/03/11 01:33:01;;;;;;;15.48;9.13;;;3.40;79.90;;;;;;4991039;28;20050;-84
2022/03/11 01:35:27;;;;;;;14.77;8.35;;;3.30;80.30;;;;;;4974958;28;20050;-82
2022/03/11 01:37:53;;;;;;;16.25;8.88;;;3.40;80.50;;;;;;4975139;28;20038;-82
2022/03/11 01:40:19;;;;;;;16.50;8.63;;;3.40;80.70;;;;;;4975156;28;20132;-82
2022/03/11 01:42:44;;;;;;;17.10;9.40;;;3.40;81.30;;;;;;4968486;28;20129;-83
2022/03/11 01:45:10;;;;;;;16.85;9.50;;;3.40;81.20;;;;;;4975420;28;20038;-87
2022/03/11 01:47:36;;;;;;;16.88;9.80;;;3.40;81.20;;;;;;4990417;28;20050;-83
2022/03/11 01:50:02;;;;;;;17.92;9.70;;;3.50;81.60;;;;;;4995606;28;20046;-82
2022/03/11 01:52:28;;;;;;;16.98;9.40;;;3.40;81.50;;;;;;5009018;28;20063;-84
2022/03/11 01:54:54;;;;;;;14.50;9.50;;;3.50;82.20;;;;;;4980472;28;20050;-82
2022/03/11 01:57:20;;;;;;;16.90;9.57;;;3.40;82.20;;;;;;4989907;28;20050;-84
2022/03/11 01:59:46;;;;;;;24.95;10.60;;;3.40;82.00;;;;;;4990815;28;20056;-82
2022/03/11 02:02:12;;;;;;;16.90;10.60;;;3.40;82.20;;;;;;4974749;28;20424;-88
2022/03/11 02:04:39;;;;;;;17.65;10.30;;;3.30;82.80;;;;;;4958527;28;20813;-86
2022/03/11 02:07:05;;;;;;;15.18;9.75;;;3.30;83.30;;;;;;4975037;28;20066;-83
2022/03/11 02:09:31;;;;;;;19.38;10.60;;;3.20;83.40;;;;;;4958379;28;20085;-82
2022/03/11 02:11:56;;;;;;;17.95;10.82;;;3.30;83.50;;;;;;4986606;28;20043;-82
2022/03/11 02:14:22;;;;;;;19.85;11.55;;;3.20;83.50;;;;;;4989455;28;20054;-84
2022/03/11 02:16:48;;;;;;;19.42;11.27;;;3.20;84.60;;;;;;4990094;28;20053;-89
2022/03/11 02:19:14;;;;;;;20.95;11.13;;;3.30;84.60;;;;;;4989511;28;20129;-88
2022/03/11 02:21:48;;;;;;;25.90;12.23;;;3.20;84.60;;;;;;4974070;28;20054;-82
2022/03/11 02:24:14;;;;;;;20.33;12.07;;;3.20;85.10;;;;;;4991150;28;20064;-89
2022/03/11 02:26:41;;;;;;;19.42;12.52;;;3.20;85.20;;;;;;4975373;28;20057;-83
2022/03/11 02:29:07;;;;;;;21.00;12.23;;;3.20;84.70;;;;;;4991004;28;20045;-83
2022/03/11 02:31:33;;;;;;;25.13;12.85;;;3.20;85.30;;;;;;4990283;28;20474;-84
2022/03/11 02:34:00;;;;;;;21.67;12.18;;;3.10;85.70;;;;;;4982172;28;20101;-83
2022/03/11 02:36:26;;;;;;;23.98;12.38;;;3.10;85.80;;;;;;4957525;28;20046;-83
2022/03/11 02:38:53;;;;;;;22.50;13.18;;;3.10;86.40;;;;;;4975093;28;20046;-84
2022/03/11 02:41:18;;;;;;;22.77;12.60;;;3.00;86.50;;;;;;4991048;28;20097;-84
2022/03/11 02:43:44;;;;;;;20.77;13.07;;;3.10;86.80;;;;;;4990104;28;20480;-83
2022/03/11 02:46:11;;;;;;;23.67;12.68;;;3.10;86.90;;;;;;4973239;28;20042;-83
2022/03/11 02:48:37;;;;;;;24.83;14.00;;;3.10;87.00;;;;;;4974371;28;20105;-84
2022/03/11 02:51:04;;;;;;;25.35;13.95;;;3.00;87.00;;;;;;4974300;28;20129;-83
2022/03/11 02:53:30;;;;;;;22.48;13.90;;;3.00;87.60;;;;;;4973463;28;20065;-83
2022/03/11 02:55:58;;;;;;;26.15;14.05;;;3.10;87.70;;;;;;4989008;28;20034;-82
2022/03/11 02:58:24;;;;;;;24.48;14.70;;;3.00;87.60;;;;;;4990294;28;20067;-83
2022/03/11 03:00:49;;;;;;;26.55;14.52;;;3.00;88.10;;;;;;4958718;28;20145;-84
2022/03/11 03:03:15;;;;;;;24.50;14.27;;;3.00;88.30;;;;;;4993254;28;20046;-87
2022/03/11 03:05:41;;;;;;;27.48;14.18;;;3.00;88.10;;;;;;4994654;28;20128;-82
2022/03/11 03:08:07;;;;;;;27.00;14.55;;;2.90;88.40;;;;;;4962401;28;20083;-82
2022/03/11 03:10:33;;;;;;;26.83;14.50;;;2.90;89.10;;;;;;4977724;28;20046;-83
2022/03/11 03:12:59;;;;;;;26.90;14.35;;;2.90;88.70;;;;;;4994217;28;20050;-84
2022/03/11 03:15:24;;;;;;;28.75;14.45;;;3.00;89.20;;;;;;4994016;28;20137;-82
2022/03/11 03:17:50;;;;;;;26.58;14.60;;;3.00;89.40;;;;;;4994350;28;20046;-83
2022/03/11 03:20:16;;;;;;;29.05;15.23;;;2.90;89.70;;;;;;4976098;28;20120;-82
2022/03/11 03:22:42;;;;;;;29.17;14.85;;;2.90;89.60;;;;;;4975741;28;20062;-86
2022/03/11 03:25:09;;;;;;;28.67;15.10;;;2.90;89.40;;;;;;4957856;28;20531;-86
2022/03/11 03:27:36;;;;;;;25.48;15.07;;;2.90;89.70;;;;;;4976659;28;20042;-82
2022/03/11 03:30:04;;;;;;;27.58;14.85;;;2.80;89.90;;;;;;4992857;28;20081;-83
2022/03/11 03:32:30;;;;;;;26.67;15.27;;;2.80;90.10;;;;;;4975684;28;20061;-84
2022/03/11 03:34:56;;;;;;;28.70;16.17;;;2.80;90.10;;;;;;4977210;28;20444;-83
2022/03/11 03:37:21;;;;;;;28.83;15.82;;;2.70;90.00;;;;;;4976996;28;20089;-83
2022/03/11 03:39:47;;;;;;;28.25;16.38;;;2.70;90.30;;;;;;4978084;28;20498;-82
2022/03/11 03:42:13;;;;;;;31.00;16.02;;;2.70;90.30;;;;;;4977724;28;20113;-82
2022/03/11 03:44:39;;;;;;;29.50;16.38;;;2.70;90.50;;;;;;5010163;28;20412;-83
2022/03/11 03:47:04;;;;;;;31.13;17.73;;;2.70;90.50;;;;;;4993733;28;20074;-82
2022/03/11 03:49:30;;;;;;;30.30;16.35;;;2.60;90.50;;;;;;4994333;28;20061;-83
2022/03/11 03:51:56;;;;;;;31.48;17.55;;;2.60;90.50;;;;;;4968205;28;21535;-83
2022/03/11 03:54:22;;;;;;;31.52;17.52;;;2.60;90.50;;;;;;4976510;28;20085;-87
2022/03/11 03:56:48;;;;;;;33.22;17.02;;;2.60;90.70;;;;;;4979654;28;20049;-82
2022/03/11 03:59:13;;;;;;;32.13;18.20;;;2.60;90.60;;;;;;4993899;28;20076;-83
2022/03/11 04:01:43;;;;;;;33.05;18.20;;;2.60;90.80;;;;;;4961144;28;20062;-84
2022/03/11 04:04:13;;;;;;;32.85;17.90;;;2.60;90.80;;;;;;5009465;28;20129;-83
2022/03/11 04:06:42;;;;;;;33.03;18.17;;;2.60;90.80;;;;;;4977689;28;20101;-82
2022/03/11 04:09:09;;;;;;;30.50;17.38;;;2.50;90.80;;;;;;4977486;28;20054;-82
2022/03/11 04:11:35;;;;;;;34.38;19.00;;;2.50;90.80;;;;;;4968436;28;20077;-82
2022/03/11 04:14:01;;;;;;;34.30;17.77;;;2.50;91.00;;;;;;4958366;28;20042;-83
2022/03/11 04:16:27;;;;;;;32.38;18.17;;;2.40;90.80;;;;;;4967831;28;20077;-82
2022/03/11 04:18:53;;;;;;;32.45;17.05;;;2.40;91.10;;;;;;4977091;28;20064;-84
2022/03/11 04:21:20;;;;;;;33.17;18.50;;;2.40;91.30;;;;;;4976614;28;20122;-84
2022/03/11 04:23:48;;;;;;;33.78;18.58;;;2.40;91.30;;;;;;4976688;28;20077;-82
2022/03/11 04:26:15;;;;;;;31.48;17.98;;;2.40;91.20;;;;;;4975651;28;20502;-83
2022/03/11 04:28:41;;;;;;;34.45;18.60;;;2.40;91.10;;;;;;4992920;28;20053;-82
2022/03/11 04:31:08;;;;;;;32.00;19.08;;;2.30;91.40;;;;;;4960502;28;20046;-82
2022/03/11 04:33:34;;;;;;;30.85;18.08;;;2.30;91.40;;;;;;4992835;28;20404;-83
2022/03/11 04:36:00;;;;;;;31.70;18.02;;;2.30;91.20;;;;;;4961068;28;20050;-83
2022/03/11 04:38:26;;;;;;;33.65;18.73;;;2.20;91.30;;;;;;4976627;28;20050;-82
2022/03/11 04:40:52;;;;;;;31.85;18.98;;;2.20;91.30;;;;;;4993067;28;20046;-82
2022/03/11 04:43:19;;;;;;;34.28;19.05;;;2.20;91.50;;;;;;4996633;28;20054;-82
2022/03/11 04:45:45;;;;;;;33.55;19.27;;;2.20;91.90;;;;;;4976431;28;20049;-82
2022/03/11 04:48:11;;;;;;;34.33;18.80;;;2.20;91.80;;;;;;4976898;28;20054;-84
2022/03/11 04:50:37;;;;;;;35.05;19.63;;;2.20;91.80;;;;;;4991942;28;20038;-83
2022/03/11 04:53:04;;;;;;;32.83;18.33;;;2.20;91.70;;;;;;4992293;28;20097;-84
2022/03/11 04:55:30;;;;;;;31.33;19.00;;;2.20;91.80;;;;;;4993121;28;20057;-83
2022/03/11 04:57:55;;;;;;;35.33;19.20;;;2.10;91.70;;;;;;4953464;28;20416;-83
2022/03/11 05:00:21;;;;;;;38.08;19.52;;;2.10;91.80;;;;;;4972557;28;20046;-84
2022/03/11 05:02:47;;;;;;;32.05;18.70;;;2.10;91.80;;;;;;4983920;28;20510;-83
2022/03/11 05:05:14;;;;;;;35.08;19.48;;;2.10;92.00;;;;;;4992684;28;20050;-86
2022/03/11 05:07:40;;;;;;;35.58;19.63;;;2.10;92.00;;;;;;4974594;28;20042;-87
2022/03/11 05:10:08;;;;;;;34.17;18.00;;;2.00;91.90;;;;;;4974643;28;20046;-83
2022/03/11 05:12:37;;;;;;;36.70;19.52;;;2.00;91.80;;;;;;4992087;28;20046;-82
2022/03/11 05:15:06;;;;;;;34.88;19.27;;;2.00;92.10;;;;;;4976471;28;20391;-84
2022/03/11 05:17:31;;;;;;;34.78;19.65;;;2.00;91.80;;;;;;4975894;28;20100;-83
2022/03/11 05:19:57;;;;;;;33.25;18.85;;;1.90;92.00;;;;;;4989686;28;20081;-83
2022/03/11 05:22:23;;;;;;;35.35;19.65;;;1.90;92.10;;;;;;4979325;28;20055;-83
2022/03/11 05:24:49;;;;;;;33.05;18.52;;;1.90;92.00;;;;;;4975311;28;20042;-84
2022/03/11 05:27:15;;;;;;;36.20;19.42;;;1.90;92.00;;;;;;4992156;28;20045;-83
2022/03/11 05:29:41;;;;;;;31.02;18.73;;;1.80;92.20;;;;;;4975940;28;20534;-87
2022/03/11 05:32:07;;;;;;;34.88;19.48;;;1.80;92.20;;;;;;4986869;28;20041;-83
2022/03/11 05:34:41;;;;;;;34.17;19.42;;;1.80;92.20;;;;;;4991530;28;20043;-83
2022/03/11 05:37:07;;;;;;;40.15;19.20;;;1.80;92.30;;;;;;4957477;28;20054;-83
2022/03/11 05:39:33;;;;;;;35.33;19.25;;;1.80;92.50;;;;;;5007760;28;20204;-83
2022/03/11 05:42:00;;;;;;;30.38;17.73;;;1.80;92.30;;;;;;4976857;28;20784;-85
2022/03/11 05:44:26;;;;;;;34.20;19.38;;;1.80;92.30;;;;;;4959720;28;20125;-84
2022/03/11 05:46:52;;;;;;;33.42;18.00;;;1.70;92.40;;;;;;4959309;28;20117;-84
2022/03/11 05:49:19;;;;;;;38.30;18.77;;;1.70;92.30;;;;;;4975855;28;20467;-84
2022/03/11 05:51:45;;;;;;;34.78;19.27;;;1.70;92.40;;;;;;4979516;28;20034;-83
2022/03/11 05:54:11;;;;;;;36.58;19.85;;;1.60;92.40;;;;;;4958902;28;20065;-84
2022/03/11 05:56:37;;;;;;;34.38;18.85;;;1.60;92.30;;;;;;4974286;28;20051;-83
2022/03/11 05:59:04;;;;;;;36.63;19.63;;;1.60;92.50;;;;;;5001663;28;20045;-84
2022/03/11 06:01:31;;;;;;;29.95;18.27;;;1.60;92.60;;;;;;4974566;28;20034;-89
2022/03/11 06:03:57;;;;;;;40.08;19.23;;;1.50;92.70;;;;;;4959555;28;20050;-83
2022/03/11 06:06:23;;;;;;;36.33;18.50;;;1.60;92.60;;;;;;4987618;28;20050;-83
2022/03/11 06:08:48;;;;;;;39.85;20.05;;;1.60;92.60;;;;;;4988497;28;20041;-85
2022/03/11 06:11:14;;;;;;;33.00;17.92;;;1.60;92.70;;;;;;4988423;28;20113;-84
2022/03/11 06:13:40;;;;;;;36.65;18.52;;;1.60;92.70;;;;;;4992310;28;20166;-83
2022/03/11 06:16:06;;;;;;;37.65;19.42;;;1.60;92.60;;;;;;4958489;28;20035;-83
2022/03/11 06:18:31;;;;;;;36.47;19.00;;;1.70;92.50;;;;;;4967547;28;20046;-88
2022/03/11 06:20:57;;;;;;;34.72;19.30;;;1.60;92.60;;;;;;4986724;28;20042;-84
2022/03/11 06:23:24;;;;;;;37.25;19.02;;;1.60;92.50;;;;;;4957733;28;20086;-84
2022/03/11 06:25:50;;;;;;;33.70;18.73;;;1.60;92.80;;;;;;4969088;28;20104;-83
2022/03/11 06:28:15;;;;;;;34.70;19.65;;;1.60;92.40;;;;;;4973624;28;20399;-83
2022/03/11 06:30:42;;;;;;;36.53;18.48;;;1.60;92.50;;;;;;4971169;28;20038;-83
2022/03/11 06:33:09;;;;;;;32.20;18.77;;;1.70;92.50;;;;;;4962461;28;20133;-84
2022/03/11 06:35:36;;;;;;;33.75;18.95;;;1.70;92.20;;;;;;4975040;28;20056;-84
2022/03/11 06:38:02;;;;;;;32.88;18.45;;;1.70;92.30;;;;;;4976224;28;20046;-85
2022/03/11 06:40:29;;;;;;;31.70;18.80;;;1.70;92.20;;;;;;4996546;28;20046;-84
2022/03/11 06:42:55;;;;;;;35.05;19.30;;;1.70;92.20;;;;;;4993618;28;20108;-83
2022/03/11 06:45:21;;;;;;;34.88;18.63;;;1.70;92.30;;;;;;4993671;28;20042;-82
2022/03/11 06:47:47;;;;;;;32.05;18.55;;;1.80;92.30;;;;;;4962964;28;20046;-81
2022/03/11 06:50:14;;;;;;;31.67;17.83;;;1.80;92.10;;;;;;4975704;28;20509;-83
2022/03/11 06:52:39;;;;;;;36.90;19.20;;;1.80;92.00;;;;;;4992480;28;20129;-88
2022/03/11 06:55:05;;;;;;;30.98;18.27;;;1.90;92.00;;;;;;4990190;28;20054;-82
2022/03/11 06:57:32;;;;;;;35.08;19.20;;;1.80;91.80;;;;;;4989954;28;20484;-87
2022/03/11 06:59:57;;;;;;;31.92;18.13;;;1.80;91.80;;;;;;4977480;28;20093;-83
2022/03/11 07:02:23;;;;;;;37.63;17.60;;;1.90;91.80;;;;;;4993308;28;20501;-84
2022/03/11 07:04:49;;;;;;;33.10;18.52;;;1.90;91.80;;;;;;4978209;28;20484;-85
2022/03/11 07:07:14;;;;;;;31.70;18.90;;;2.00;91.80;;;;;;4979014;28;20452;-83
2022/03/11 07:09:40;;;;;;;30.90;18.13;;;2.00;91.60;;;;;;4978939;28;20050;-84
2022/03/11 07:12:06;;;;;;;32.95;17.60;;;2.10;91.50;;;;;;4979158;28;20042;-84
2022/03/11 07:14:35;;;;;;;35.47;19.10;;;2.20;91.30;;;;;;4979011;28;20407;-85
2022/03/11 07:17:01;;;;;;;35.45;18.08;;;2.20;91.30;;;;;;4978873;28;20391;-85
2022/03/11 07:19:27;;;;;;;35.17;18.48;;;2.20;91.20;;;;;;4994672;28;20054;-84
2022/03/11 07:21:57;;;;;;;34.78;17.63;;;2.30;91.20;;;;;;4994611;28;20133;-84
2022/03/11 07:24:23;;;;;;;30.35;17.83;;;2.30;91.10;;;;;;4994998;28;20056;-84
2022/03/11 07:26:49;;;;;;;34.28;18.33;;;2.40;91.00;;;;;;5011267;28;20050;-84
2022/03/11 07:29:15;;;;;;;33.03;18.50;;;2.40;90.90;;;;;;4978979;28;20038;-83
2022/03/11 07:31:41;;;;;;;28.83;16.95;;;2.50;90.60;;;;;;4978558;28;20046;-84
2022/03/11 07:34:07;;;;;;;30.15;17.25;;;2.60;90.50;;;;;;4994915;28;20076;-83
2022/03/11 07:36:34;;;;;;;31.55;18.05;;;2.60;90.40;;;;;;4978719;28;20062;-84
2022/03/11 07:39:04;;;;;;;31.73;18.00;;;2.60;90.30;;;;;;4995354;28;20061;-83
2022/03/11 07:41:30;;;;;;;32.17;18.20;;;2.70;90.00;;;;;;4979006;28;20054;-84
2022/03/11 07:43:56;;;;;;;33.05;18.67;;;2.70;89.80;;;;;;4978397;28;20042;-84
2022/03/11 07:46:23;;;;;;;30.80;17.23;;;2.80;89.70;;;;;;4978472;28;20116;-84
2022/03/11 07:48:50;;;;;;;30.73;18.27;;;2.90;89.50;;;;;;4993695;28;20447;-84
2022/03/11 07:51:16;;;;;;;31.27;18.27;;;2.90;89.20;;;;;;4994225;28;20403;-83
2022/03/11 07:53:42;;;;;;;33.53;18.80;;;2.90;88.90;;;;;;4993701;28;20794;-84
2022/03/11 07:56:10;;;;;;;30.02;18.23;;;3.10;88.90;;;;;;4978903;28;20062;-84
2022/03/11 07:58:36;;;;;;;32.17;17.80;;;3.10;88.70;;;;;;4978654;28;20124;-87
2022/03/11 08:01:04;;;;;;;32.17;18.45;;;3.10;88.60;;;;;;4978062;28;20054;-84
2022/03/11 08:03:30;;;;;;;32.53;18.75;;;3.20;88.00;;;;;;4994397;28;20399;-84
2022/03/11 08:05:56;;;;;;;33.08;18.38;;;3.20;87.60;;;;;;4994267;28;20084;-84
2022/03/11 08:08:21;;;;;;;32.10;17.83;;;3.30;87.20;;;;;;4978488;28;20479;-83
2022/03/11 08:10:48;;;;;;;32.55;17.90;;;3.40;87.00;;;;;;4995173;28;20050;-84
2022/03/11 08:13:14;;;;;;;34.47;17.65;;;3.40;86.70;;;;;;4978879;28;20110;-84
2022/03/11 08:15:40;;;;;;;33.88;17.73;;;3.50;86.70;;;;;;4995079;28;20624;-85
2022/03/11 08:18:06;;;;;;;31.08;18.10;;;3.60;86.40;;;;;;4977902;28;20057;-84
2022/03/11 08:20:32;;;;;;;31.33;17.77;;;3.50;86.10;;;;;;4978018;28;20046;-86
2022/03/11 08:22:58;;;;;;;30.67;16.67;;;3.70;85.70;;;;;;4994695;28;20034;-84
2022/03/11 08:25:26;;;;;;;31.13;17.88;;;3.70;85.30;;;;;;4987586;28;20053;-83
2022/03/11 08:27:56;;;;;;;29.85;16.92;;;3.80;85.10;;;;;;4977726;28;20499;-84
2022/03/11 08:30:25;;;;;;;32.92;17.52;;;4.00;84.70;;;;;;4992914;28;20058;-84
2022/03/11 08:32:52;;;;;;;31.98;17.25;;;4.00;84.50;;;;;;4957295;28;20484;-87
2022/03/11 08:35:18;;;;;;;29.85;17.88;;;4.00;83.70;;;;;;4976389;28;20905;-85
2022/03/11 08:37:44;;;;;;;29.27;17.48;;;4.10;83.60;;;;;;4996741;28;20042;-85
2022/03/11 08:40:11;;;;;;;28.90;18.35;;;4.30;83.20;;;;;;4987983;28;20946;-84
2022/03/11 08:42:38;;;;;;;32.65;18.05;;;4.30;83.10;;;;;;4985275;28;20129;-83
2022/03/11 08:45:06;;;;;;;33.50;16.75;;;4.30;82.50;;;;;;4966219;28;20055;-84
2022/03/11 08:47:32;;;;;;;31.45;17.77;;;4.50;81.60;;;;;;4991673;28;20503;-86
2022/03/11 08:49:58;;;;;;;30.08;17.33;;;4.60;81.00;;;;;;4992034;28;20081;-83
2022/03/11 08:52:28;;;;;;;29.88;17.80;;;4.70;80.30;;;;;;4973749;28;20550;-83
2022/03/11 08:54:54;;;;;;;29.27;17.35;;;4.80;80.20;;;;;;4976883;28;20125;-84
2022/03/11 08:57:19;;;;;;;28.30;16.77;;;4.90;80.00;;;;;;4992367;28;20539;-85
2022/03/11 08:59:45;;;;;;;30.63;17.48;;;4.90;79.50;;;;;;4974954;28;20046;-84
2022/03/11 09:02:13;;;;;;;29.02;17.70;;;5.00;78.40;;;;;;4985698;28;20119;-85
2022/03/11 09:04:39;;;;;;;32.00;18.08;;;5.10;78.50;;;;;;4976277;28;20058;-83
2022/03/11 09:07:04;;;;;;;29.13;18.20;;;5.10;77.50;;;;;;4991453;28;20042;-84
2022/03/11 09:09:32;;;;;;;28.42;17.02;;;5.20;77.70;;;;;;4968865;28;20054;-84
2022/03/11 09:11:59;;;;;;;32.15;18.50;;;5.30;77.00;;;;;;4992068;28;20050;-84
2022/03/11 09:14:25;;;;;;;29.27;18.38;;;5.40;76.80;;;;;;4992088;28;20057;-84
2022/03/11 09:16:50;;;;;;;32.45;17.10;;;5.40;76.40;;;;;;4987627;28;20039;-83
2022/03/11 09:19:16;;;;;;;30.13;17.88;;;5.60;75.80;;;;;;4973507;28;20069;-84
2022/03/11 09:21:42;;;;;;;27.20;17.40;;;5.60;75.60;;;;;;4974358;28;20397;-89
2022/03/11 09:24:08;;;;;;;28.75;17.70;;;5.60;75.80;;;;;;4980718;28;20137;-84
2022/03/11 09:26:34;;;;;;;29.80;16.58;;;5.70;75.00;;;;;;4975544;28;20057;-84
2022/03/11 09:28:59;;;;;;;30.38;18.38;;;5.90;74.30;;;;;;4991435;28;20042;-84
2022/03/11 09:31:25;;;;;;;27.75;16.55;;;6.00;73.70;;;;;;4959012;28;20061;-84
2022/03/11 09:33:51;;;;;;;26.33;16.33;;;6.00;73.10;;;;;;4959251;28;20136;-84
2022/03/11 09:36:17;;;;;;;28.95;17.23;;;6.10;73.20;;;;;;4958594;28;20057;-83
2022/03/11 09:38:43;;;;;;;28.83;18.38;;;6.20;72.20;;;;;;4971431;28;20043;-89
2022/03/11 09:41:10;;;;;;;32.03;17.27;;;6.40;72.00;;;;;;4976785;28;20069;-83
2022/03/11 09:43:37;;;;;;;28.88;17.83;;;6.50;71.40;;;;;;4991041;28;20050;-84
2022/03/11 09:46:04;;;;;;;28.27;16.83;;;6.70;70.60;;;;;;4975842;28;20064;-85
2022/03/11 09:48:31;;;;;;;27.83;17.20;;;6.80;70.30;;;;;;4973320;28;20101;-84
2022/03/11 09:50:59;;;;;;;24.83;16.67;;;6.90;70.60;;;;;;4974269;28;20146;-84
2022/03/11 09:53:27;;;;;;;28.23;16.63;;;7.00;69.30;;;;;;4989440;28;20069;-84
2022/03/11 09:55:53;;;;;;;29.33;17.50;;;7.20;68.20;;;;;;4975878;28;20051;-85
2022/03/11 09:58:18;;;;;;;29.17;18.20;;;7.40;67.20;;;;;;4976002;28;20044;-86
2022/03/11 10:00:50;;;;;;;27.10;16.52;;;7.70;66.20;;;;;;4956413;28;20044;-86
2022/03/11 10:03:16;;;;;;;28.83;16.85;;;7.90;65.10;;;;;;4972389;28;20500;-86
2022/03/11 10:05:50;;;;;;;27.15;16.88;;;8.00;64.50;;;;;;4960724;28;20100;-87
2022/03/11 10:11:26;;;;;;;25.02;16.10;;;8.30;63.10;;;;;;4991123;28;20047;-85
2022/03/11 10:14:02;;;;;;;28.88;15.88;;;8.50;61.80;;;;;;4967895;28;20058;-84
2022/03/11 10:16:30;;;;;;;32.00;16.52;;;8.70;61.40;;;;;;4976476;28;20042;-84
2022/03/11 10:19:09;;;;;;;25.83;16.30;;;8.80;61.10;;;;;;4975301;28;20133;-82
2022/03/11 10:21:46;;;;;;;28.40;16.50;;;8.90;59.60;;;;;;4991033;28;20058;-82
2022/03/11 10:24:15;;;;;;;27.73;16.35;;;9.10;59.70;;;;;;4990308;28;20061;-86
2022/03/11 10:26:42;;;;;;;27.13;17.50;;;9.20;59.30;;;;;;4956000;28;20140;-82
2022/03/11 10:29:14;;;;;;;28.00;17.48;;;9.40;58.70;;;;;;4972425;28;20055;-83
2022/03/11 10:31:45;;;;;;;25.92;17.45;;;9.50;57.30;;;;;;4971506;28;20051;-83
2022/03/11 10:34:24;;;;;;;25.60;16.63;;;9.60;56.90;;;;;;4982923;28;20051;-84
2022/03/11 10:36:54;;;;;;;28.50;16.20;;;9.70;55.70;;;;;;4973514;28;20119;-84
2022/03/11 10:39:44;;;;;;;28.02;17.40;;;9.80;55.80;;;;;;4973288;28;20122;-84
2022/03/11 10:42:16;;;;;;;25.95;16.40;;;9.80;53.90;;;;;;4975869;28;20053;-84
2022/03/11 10:45:06;;;;;;;26.50;17.27;;;9.80;55.40;;;;;;4975997;28;20050;-85
2022/03/11 10:47:36;;;;;;;26.23;17.20;;;9.90;52.50;;;;;;4992545;28;20054;-89
2022/03/11 10:50:08;;;;;;;27.20;16.17;;;10.00;54.70;;;;;;4992373;28;20121;-86
2022/03/11 10:52:41;;;;;;;25.63;16.65;;;10.10;54.10;;;;;;4963413;28;20058;-84
2022/03/11 10:55:29;;;;;;;25.00;15.95;;;10.20;54.20;;;;;;4977023;28;20050;-84
2022/03/11 10:58:00;;;;;;;26.67;16.70;;;10.40;52.80;;;;;;4986844;28;20050;-84
2022/03/11 11:00:29;;;;;;;27.27;16.90;;;10.50;53.40;;;;;;4976004;28;20038;-84
2022/03/11 11:03:03;;;;;;;26.40;16.02;;;10.60;52.80;;;;;;4975906;28;20461;-85
2022/03/11 11:05:30;;;;;;;25.80;16.77;;;10.70;52.50;;;;;;4966134;28;20544;-84
2022/03/11 11:07:58;;;;;;;25.60;16.50;;;10.90;52.40;;;;;;4976192;28;20086;-85
2022/03/11 11:10:30;;;;;;;26.13;16.55;;;11.20;52.40;;;;;;4976183;28;20122;-85
2022/03/11 11:12:59;;;;;;;29.15;16.80;;;11.30;51.30;;;;;;4991193;28;20047;-85
2022/03/11 11:15:25;;;;;;;26.30;16.42;;;11.40;50.80;;;;;;4975617;28;20050;-84
2022/03/11 11:17:52;;;;;;;29.38;16.05;;;11.60;50.70;;;;;;4975270;28;20038;-86
2022/03/11 11:20:45;;;;;;;25.98;16.77;;;11.70;49.20;;;;;;4965550;28;20047;-84
2022/03/11 11:23:11;;;;;;;27.08;16.52;;;11.80;48.90;;;;;;5003087;28;20047;-84
2022/03/11 11:25:38;;;;;;;29.50;17.05;;;11.80;49.20;;;;;;4959907;28;20055;-86
2022/03/11 11:28:18;;;;;;;29.48;16.17;;;11.90;48.60;;;;;;4991416;28;20049;-87
2022/03/11 11:30:45;;;;;;;31.35;16.58;;;11.90;47.90;;;;;;4994853;28;20117;-82
2022/03/11 11:33:15;;;;;;;26.17;17.17;;;11.90;48.10;;;;;;4977351;28;20181;-82
2022/03/11 11:35:44;;;;;;;23.88;15.80;;;12.00;47.70;;;;;;4977054;28;20057;-83
2022/03/11 11:38:32;;;;;;;24.15;16.27;;;12.00;47.40;;;;;;4982092;28;20048;-82
2022/03/11 11:41:00;;;;;;;23.33;15.43;;;12.10;47.00;;;;;;4995893;28;20054;-83
2022/03/11 11:43:30;;;;;;;24.55;15.85;;;12.30;47.60;;;;;;4993431;28;20051;-83
2022/03/11 11:46:02;;;;;;;22.80;15.50;;;12.50;47.00;;;;;;4992039;28;20038;-83
2022/03/11 11:48:52;;;;;;;23.52;16.38;;;12.70;45.90;;;;;;4984535;28;20161;-83
2022/03/11 11:51:38;;;;;;;22.30;16.13;;;12.90;46.30;;;;;;4987335;28;20042;-84
2022/03/11 11:54:14;;;;;;;23.60;16.33;;;13.20;44.60;;;;;;4972684;28;20089;-84
2022/03/11 11:56:45;;;;;;;23.35;16.15;;;13.70;45.10;;;;;;4982877;28;20459;-85
2022/03/11 11:59:26;;;;;;;22.27;14.63;;;14.20;43.20;;;;;;4965994;28;20085;-85
2022/03/11 12:01:53;;;;;;;22.52;15.80;;;14.80;40.80;;;;;;4976745;28;20042;-88
2022/03/11 12:04:29;;;;;;;23.40;15.68;;;15.50;40.90;;;;;;4991516;28;20104;-85
2022/03/11 12:07:15;;;;;;;26.17;15.32;;;16.20;39.90;;;;;;4976605;28;20046;-88
2022/03/11 12:12:35;;;;;;;23.83;15.32;;;18.10;37.10;;;;;;4993707;28;20101;-84
2022/03/11 12:15:04;;;;;;;23.02;14.98;;;18.70;33.70;;;;;;4977269;28;20050;-83
2022/03/11 12:17:36;;;;;;;21.85;14.63;;;18.90;34.20;;;;;;4986287;28;20046;-83
2022/03/11 12:20:21;;;;;;;22.58;15.05;;;19.20;32.70;;;;;;4992995;28;20053;-83
2022/03/11 12:22:57;;;;;;;23.02;14.73;;;19.40;32.40;;;;;;4972710;28;20046;-83
2022/03/11 12:25:29;;;;;;;19.42;14.57;;;19.80;31.90;;;;;;4991894;28;20050;-84
2022/03/11 12:28:07;;;;;;;22.52;14.40;;;20.20;31.20;;;;;;4976646;28;20516;-88
2022/03/11 12:30:47;;;;;;;22.58;15.10;;;20.90;30.40;;;;;;4992227;28;20156;-85
2022/03/11 12:33:16;;;;;;;19.35;13.93;;;21.40;29.90;;;;;;4983926;28;20622;-87
2022/03/11 12:35:43;;;;;;;17.23;13.70;;;22.00;30.00;;;;;;4982982;28;20128;-83
2022/03/11 12:38:24;;;;;;;19.10;14.27;;;22.20;28.50;;;;;;4982615;28;20050;-86
2022/03/11 12:40:50;;;;;;;18.95;14.43;;;22.10;27.70;;;;;;4971793;28;20061;-84
2022/03/11 12:43:20;;;;;;;19.83;14.38;;;22.30;28.50;;;;;;4972430;28;20045;-83